sensor_id;sensor_type;location;lat;lon;timestamp;P1;durP1;ratioP1;P2;durP2;ratioP2
769;SDS011;368;48.698;9.116;2022-09-03T00:02:08;3.30;;;3.00;;
769;SDS011;368;48.698;9.116;2022-09-03T00:04:40;3.93;;;3.17;;
769;SDS011;368;48.698;9.116;2022-09-03T00:07:18;2.83;;;2.63;;
769;SDS011;368;48.698;9.116;2022-09-03T00:09:52;2.80;;;2.60;;
769;SDS011;368;48.698;9.116;2022-09-03T00:12:25;4.60;;;3.10;;
769;SDS011;368;48.698;9.116;2022-09-03T00:14:54;4.00;;;3.00;;
769;SDS011;368;48.698;9.116;2022-09-03T00:17:30;5.00;;;3.20;;
769;SDS011;368;48.698;9.116;2022-09-03T00:20:02;6.30;;;3.17;;
769;SDS011;368;48.698;9.116;2022-09-03T00:22:32;4.40;;;4.00;;
769;SDS011;368;48.698;9.116;2022-09-03T00:25:03;6.57;;;4.47;;
769;SDS011;368;48.698;9.116;2022-09-03T00:27:36;4.10;;;3.80;;
769;SDS011;368;48.698;9.116;2022-09-03T00:30:06;4.03;;;3.63;;
769;SDS011;368;48.698;9.116;2022-09-03T00:32:38;3.30;;;3.00;;
769;SDS011;368;48.698;9.116;2022-09-03T00:35:10;3.87;;;3.20;;
769;SDS011;368;48.698;9.116;2022-09-03T00:37:41;4.13;;;3.10;;
769;SDS011;368;48.698;9.116;2022-09-03T00:40:10;3.03;;;2.57;;
769;SDS011;368;48.698;9.116;2022-09-03T00:42:49;5.87;;;2.40;;
769;SDS011;368;48.698;9.116;2022-09-03T00:45:25;3.20;;;2.90;;
769;SDS011;368;48.698;9.116;2022-09-03T00:48:04;2.57;;;2.37;;
769;SDS011;368;48.698;9.116;2022-09-03T00:50:40;3.93;;;3.10;;
769;SDS011;368;48.698;9.116;2022-09-03T00:53:16;4.13;;;3.27;;
769;SDS011;368;48.698;9.116;2022-09-03T00:55:51;2.87;;;2.60;;
769;SDS011;368;48.698;9.116;2022-09-03T00:58:28;3.10;;;2.80;;
769;SDS011;368;48.698;9.116;2022-09-03T01:01:23;4.80;;;2.97;;
769;SDS011;368;48.698;9.116;2022-09-03T01:03:59;3.47;;;2.90;;
769;SDS011;368;48.698;9.116;2022-09-03T01:06:36;3.77;;;2.90;;
769;SDS011;368;48.698;9.116;2022-09-03T01:09:11;4.00;;;2.90;;
769;SDS011;368;48.698;9.116;2022-09-03T01:11:56;3.40;;;3.10;;
769;SDS011;368;48.698;9.116;2022-09-03T01:14:29;2.90;;;2.70;;
769;SDS011;368;48.698;9.116;2022-09-03T01:17:08;3.10;;;2.90;;
769;SDS011;368;48.698;9.116;2022-09-03T01:19:53;3.47;;;3.17;;
769;SDS011;368;48.698;9.116;2022-09-03T01:25:48;3.57;;;2.90;;
769;SDS011;368;48.698;9.116;2022-09-03T01:28:26;2.90;;;2.70;;
769;SDS011;368;48.698;9.116;2022-09-03T01:31:08;3.23;;;2.90;;
769;SDS011;368;48.698;9.116;2022-09-03T01:33:42;5.87;;;2.90;;
769;SDS011;368;48.698;9.116;2022-09-03T01:36:18;3.10;;;2.90;;
769;SDS011;368;48.698;9.116;2022-09-03T01:38:52;3.57;;;2.73;;
769;SDS011;368;48.698;9.116;2022-09-03T01:41:26;5.17;;;3.03;;
769;SDS011;368;48.698;9.116;2022-09-03T01:44:22;3.20;;;3.00;;
769;SDS011;368;48.698;9.116;2022-09-03T01:46:59;3.83;;;2.73;;
769;SDS011;368;48.698;9.116;2022-09-03T01:49:36;3.43;;;3.23;;
769;SDS011;368;48.698;9.116;2022-09-03T01:52:06;4.33;;;2.93;;
769;SDS011;368;48.698;9.116;2022-09-03T01:54:47;4.03;;;2.70;;
769;SDS011;368;48.698;9.116;2022-09-03T01:57:33;5.33;;;2.77;;
769;SDS011;368;48.698;9.116;2022-09-03T02:00:13;4.23;;;3.20;;
769;SDS011;368;48.698;9.116;2022-09-03T02:02:44;6.07;;;3.13;;
769;SDS011;368;48.698;9.116;2022-09-03T02:05:13;3.40;;;3.00;;
769;SDS011;368;48.698;9.116;2022-09-03T02:07:44;4.40;;;3.00;;
769;SDS011;368;48.698;9.116;2022-09-03T02:10:13;3.47;;;3.17;;
769;SDS011;368;48.698;9.116;2022-09-03T02:12:43;3.20;;;2.90;;
769;SDS011;368;48.698;9.116;2022-09-03T02:15:15;3.77;;;3.33;;
769;SDS011;368;48.698;9.116;2022-09-03T02:17:44;3.30;;;3.10;;
769;SDS011;368;48.698;9.116;2022-09-03T02:20:15;3.50;;;2.67;;
769;SDS011;368;48.698;9.116;2022-09-03T02:22:45;3.00;;;2.80;;
769;SDS011;368;48.698;9.116;2022-09-03T02:25:14;3.30;;;3.10;;
769;SDS011;368;48.698;9.116;2022-09-03T02:27:41;3.10;;;2.90;;
769;SDS011;368;48.698;9.116;2022-09-03T02:30:09;5.10;;;2.70;;
769;SDS011;368;48.698;9.116;2022-09-03T02:32:38;3.33;;;3.03;;
769;SDS011;368;48.698;9.116;2022-09-03T02:35:05;3.57;;;2.83;;
769;SDS011;368;48.698;9.116;2022-09-03T02:37:33;4.60;;;3.30;;
769;SDS011;368;48.698;9.116;2022-09-03T02:40:00;3.07;;;2.40;;
769;SDS011;368;48.698;9.116;2022-09-03T02:42:30;2.90;;;2.70;;
769;SDS011;368;48.698;9.116;2022-09-03T02:44:59;3.40;;;3.10;;
769;SDS011;368;48.698;9.116;2022-09-03T02:47:33;4.40;;;3.03;;
769;SDS011;368;48.698;9.116;2022-09-03T02:50:04;3.30;;;3.10;;
769;SDS011;368;48.698;9.116;2022-09-03T02:52:32;3.00;;;2.70;;
769;SDS011;368;48.698;9.116;2022-09-03T02:54:58;3.87;;;3.57;;
769;SDS011;368;48.698;9.116;2022-09-03T02:57:25;3.00;;;2.70;;
769;SDS011;368;48.698;9.116;2022-09-03T02:59:53;3.20;;;3.00;;
769;SDS011;368;48.698;9.116;2022-09-03T03:02:19;4.07;;;3.70;;
769;SDS011;368;48.698;9.116;2022-09-03T03:04:46;3.43;;;2.97;;
769;SDS011;368;48.698;9.116;2022-09-03T03:07:14;3.20;;;2.90;;
769;SDS011;368;48.698;9.116;2022-09-03T03:09:41;4.60;;;3.30;;
769;SDS011;368;48.698;9.116;2022-09-03T03:12:08;3.17;;;3.00;;
769;SDS011;368;48.698;9.116;2022-09-03T03:14:34;3.40;;;3.20;;
769;SDS011;368;48.698;9.116;2022-09-03T03:17:01;3.70;;;3.50;;
769;SDS011;368;48.698;9.116;2022-09-03T03:19:28;4.00;;;3.30;;
769;SDS011;368;48.698;9.116;2022-09-03T03:21:55;3.90;;;3.60;;
769;SDS011;368;48.698;9.116;2022-09-03T03:24:23;5.50;;;3.97;;
769;SDS011;368;48.698;9.116;2022-09-03T03:26:53;8.63;;;3.57;;
769;SDS011;368;48.698;9.116;2022-09-03T03:29:22;4.33;;;3.90;;
769;SDS011;368;48.698;9.116;2022-09-03T03:31:49;4.37;;;3.97;;
769;SDS011;368;48.698;9.116;2022-09-03T03:34:16;3.77;;;3.43;;
769;SDS011;368;48.698;9.116;2022-09-03T03:36:42;4.73;;;4.10;;
769;SDS011;368;48.698;9.116;2022-09-03T03:39:09;4.70;;;3.43;;
769;SDS011;368;48.698;9.116;2022-09-03T03:41:37;3.40;;;3.07;;
769;SDS011;368;48.698;9.116;2022-09-03T03:44:05;3.43;;;3.13;;
769;SDS011;368;48.698;9.116;2022-09-03T03:46:33;3.87;;;3.30;;
769;SDS011;368;48.698;9.116;2022-09-03T03:49:01;3.30;;;3.10;;
769;SDS011;368;48.698;9.116;2022-09-03T03:51:28;4.33;;;3.20;;
769;SDS011;368;48.698;9.116;2022-09-03T03:53:56;4.00;;;3.07;;
769;SDS011;368;48.698;9.116;2022-09-03T03:56:24;3.53;;;3.33;;
769;SDS011;368;48.698;9.116;2022-09-03T03:58:53;5.23;;;3.40;;
769;SDS011;368;48.698;9.116;2022-09-03T04:01:20;5.97;;;4.30;;
769;SDS011;368;48.698;9.116;2022-09-03T04:03:48;3.97;;;3.57;;
769;SDS011;368;48.698;9.116;2022-09-03T04:06:16;4.97;;;4.57;;
769;SDS011;368;48.698;9.116;2022-09-03T04:08:44;3.27;;;3.07;;
769;SDS011;368;48.698;9.116;2022-09-03T04:11:14;3.20;;;3.00;;
769;SDS011;368;48.698;9.116;2022-09-03T04:13:42;3.23;;;2.97;;
769;SDS011;368;48.698;9.116;2022-09-03T04:16:12;3.13;;;2.90;;
769;SDS011;368;48.698;9.116;2022-09-03T04:18:40;4.13;;;3.50;;
769;SDS011;368;48.698;9.116;2022-09-03T04:21:08;3.07;;;2.87;;
769;SDS011;368;48.698;9.116;2022-09-03T04:23:37;4.20;;;3.10;;
769;SDS011;368;48.698;9.116;2022-09-03T04:26:04;4.13;;;2.97;;
769;SDS011;368;48.698;9.116;2022-09-03T04:28:32;3.37;;;3.07;;
769;SDS011;368;48.698;9.116;2022-09-03T04:30:59;3.60;;;3.40;;
769;SDS011;368;48.698;9.116;2022-09-03T04:33:28;4.93;;;4.47;;
769;SDS011;368;48.698;9.116;2022-09-03T04:36:00;4.47;;;4.13;;
769;SDS011;368;48.698;9.116;2022-09-03T04:38:29;4.20;;;3.90;;
769;SDS011;368;48.698;9.116;2022-09-03T04:40:56;3.87;;;3.57;;
769;SDS011;368;48.698;9.116;2022-09-03T04:43:24;4.60;;;4.20;;
769;SDS011;368;48.698;9.116;2022-09-03T04:45:51;4.40;;;4.00;;
769;SDS011;368;48.698;9.116;2022-09-03T04:48:21;3.70;;;3.40;;
769;SDS011;368;48.698;9.116;2022-09-03T04:50:49;3.93;;;3.63;;
769;SDS011;368;48.698;9.116;2022-09-03T04:53:16;4.43;;;3.90;;
769;SDS011;368;48.698;9.116;2022-09-03T04:55:43;3.70;;;3.50;;
769;SDS011;368;48.698;9.116;2022-09-03T04:58:10;3.73;;;3.27;;
769;SDS011;368;48.698;9.116;2022-09-03T05:00:37;4.20;;;3.80;;
769;SDS011;368;48.698;9.116;2022-09-03T05:03:04;4.07;;;3.70;;
769;SDS011;368;48.698;9.116;2022-09-03T05:05:31;4.37;;;3.97;;
769;SDS011;368;48.698;9.116;2022-09-03T05:07:59;6.63;;;4.03;;
769;SDS011;368;48.698;9.116;2022-09-03T05:10:27;4.40;;;4.00;;
769;SDS011;368;48.698;9.116;2022-09-03T05:12:57;4.23;;;3.83;;
769;SDS011;368;48.698;9.116;2022-09-03T05:15:25;3.77;;;3.47;;
769;SDS011;368;48.698;9.116;2022-09-03T05:17:54;3.30;;;3.10;;
769;SDS011;368;48.698;9.116;2022-09-03T05:20:22;3.80;;;3.50;;
769;SDS011;368;48.698;9.116;2022-09-03T05:22:49;3.30;;;3.00;;
769;SDS011;368;48.698;9.116;2022-09-03T05:25:17;4.50;;;3.20;;
769;SDS011;368;48.698;9.116;2022-09-03T05:27:44;3.73;;;3.40;;
769;SDS011;368;48.698;9.116;2022-09-03T05:30:11;3.20;;;2.93;;
769;SDS011;368;48.698;9.116;2022-09-03T05:32:38;3.57;;;3.27;;
769;SDS011;368;48.698;9.116;2022-09-03T05:35:05;3.37;;;3.00;;
769;SDS011;368;48.698;9.116;2022-09-03T05:37:34;4.10;;;3.40;;
769;SDS011;368;48.698;9.116;2022-09-03T05:40:02;4.03;;;3.40;;
769;SDS011;368;48.698;9.116;2022-09-03T05:42:30;4.63;;;4.23;;
769;SDS011;368;48.698;9.116;2022-09-03T05:44:59;3.80;;;3.40;;
769;SDS011;368;48.698;9.116;2022-09-03T05:47:25;4.47;;;4.07;;
769;SDS011;368;48.698;9.116;2022-09-03T05:49:52;3.43;;;3.13;;
769;SDS011;368;48.698;9.116;2022-09-03T05:52:19;4.07;;;3.33;;
769;SDS011;368;48.698;9.116;2022-09-03T05:54:47;4.10;;;3.70;;
769;SDS011;368;48.698;9.116;2022-09-03T05:57:14;4.33;;;3.67;;
769;SDS011;368;48.698;9.116;2022-09-03T05:59:42;3.80;;;3.50;;
769;SDS011;368;48.698;9.116;2022-09-03T06:02:09;3.63;;;3.33;;
769;SDS011;368;48.698;9.116;2022-09-03T06:04:35;2.93;;;2.73;;
769;SDS011;368;48.698;9.116;2022-09-03T06:07:02;2.97;;;2.77;;
769;SDS011;368;48.698;9.116;2022-09-03T06:09:29;3.77;;;3.20;;
769;SDS011;368;48.698;9.116;2022-09-03T06:11:56;3.50;;;3.20;;
769;SDS011;368;48.698;9.116;2022-09-03T06:14:23;4.10;;;3.47;;
769;SDS011;368;48.698;9.116;2022-09-03T06:16:51;3.97;;;3.57;;
769;SDS011;368;48.698;9.116;2022-09-03T06:19:19;3.87;;;3.47;;
769;SDS011;368;48.698;9.116;2022-09-03T06:21:46;3.40;;;3.10;;
769;SDS011;368;48.698;9.116;2022-09-03T06:24:14;3.83;;;3.50;;
769;SDS011;368;48.698;9.116;2022-09-03T06:26:41;3.80;;;3.40;;
769;SDS011;368;48.698;9.116;2022-09-03T06:29:09;4.10;;;3.70;;
769;SDS011;368;48.698;9.116;2022-09-03T06:31:36;4.07;;;3.67;;
769;SDS011;368;48.698;9.116;2022-09-03T06:34:05;4.10;;;3.73;;
769;SDS011;368;48.698;9.116;2022-09-03T06:36:32;3.97;;;3.67;;
769;SDS011;368;48.698;9.116;2022-09-03T06:38:59;5.73;;;3.63;;
769;SDS011;368;48.698;9.116;2022-09-03T06:41:27;4.27;;;3.97;;
769;SDS011;368;48.698;9.116;2022-09-03T06:43:59;4.30;;;3.83;;
769;SDS011;368;48.698;9.116;2022-09-03T06:46:28;5.10;;;3.90;;
769;SDS011;368;48.698;9.116;2022-09-03T06:48:56;3.73;;;3.43;;
769;SDS011;368;48.698;9.116;2022-09-03T06:51:25;4.60;;;4.20;;
769;SDS011;368;48.698;9.116;2022-09-03T06:53:53;4.90;;;4.50;;
769;SDS011;368;48.698;9.116;2022-09-03T06:56:24;4.33;;;3.93;;
769;SDS011;368;48.698;9.116;2022-09-03T06:58:51;5.40;;;5.00;;
769;SDS011;368;48.698;9.116;2022-09-03T07:01:20;5.20;;;4.70;;
769;SDS011;368;48.698;9.116;2022-09-03T07:03:50;4.50;;;4.10;;
769;SDS011;368;48.698;9.116;2022-09-03T07:06:20;5.63;;;5.13;;
769;SDS011;368;48.698;9.116;2022-09-03T07:08:50;4.70;;;4.30;;
769;SDS011;368;48.698;9.116;2022-09-03T07:11:18;4.83;;;4.47;;
769;SDS011;368;48.698;9.116;2022-09-03T07:13:47;4.70;;;4.30;;
769;SDS011;368;48.698;9.116;2022-09-03T07:16:18;4.40;;;4.00;;
769;SDS011;368;48.698;9.116;2022-09-03T07:18:46;4.83;;;4.23;;
769;SDS011;368;48.698;9.116;2022-09-03T07:21:13;4.63;;;4.33;;
769;SDS011;368;48.698;9.116;2022-09-03T07:23:41;4.40;;;4.10;;
769;SDS011;368;48.698;9.116;2022-09-03T07:26:11;4.90;;;4.50;;
769;SDS011;368;48.698;9.116;2022-09-03T07:28:40;4.73;;;4.23;;
769;SDS011;368;48.698;9.116;2022-09-03T07:31:11;4.03;;;3.80;;
769;SDS011;368;48.698;9.116;2022-09-03T07:33:39;4.30;;;4.00;;
769;SDS011;368;48.698;9.116;2022-09-03T07:36:07;4.57;;;4.27;;
769;SDS011;368;48.698;9.116;2022-09-03T07:38:36;4.30;;;4.00;;
769;SDS011;368;48.698;9.116;2022-09-03T07:41:04;4.13;;;3.83;;
769;SDS011;368;48.698;9.116;2022-09-03T07:43:34;4.30;;;4.00;;
769;SDS011;368;48.698;9.116;2022-09-03T07:46:04;4.33;;;4.03;;
769;SDS011;368;48.698;9.116;2022-09-03T07:48:32;4.23;;;3.67;;
769;SDS011;368;48.698;9.116;2022-09-03T07:50:59;3.90;;;3.60;;
769;SDS011;368;48.698;9.116;2022-09-03T07:53:27;3.87;;;3.57;;
769;SDS011;368;48.698;9.116;2022-09-03T07:55:59;3.97;;;3.67;;
769;SDS011;368;48.698;9.116;2022-09-03T07:58:27;4.30;;;3.90;;
769;SDS011;368;48.698;9.116;2022-09-03T08:00:56;4.53;;;4.20;;
769;SDS011;368;48.698;9.116;2022-09-03T08:03:23;4.00;;;3.70;;
769;SDS011;368;48.698;9.116;2022-09-03T08:05:50;5.03;;;4.37;;
769;SDS011;368;48.698;9.116;2022-09-03T08:08:17;4.43;;;4.03;;
769;SDS011;368;48.698;9.116;2022-09-03T08:10:44;5.93;;;4.30;;
769;SDS011;368;48.698;9.116;2022-09-03T08:13:10;4.77;;;3.90;;
769;SDS011;368;48.698;9.116;2022-09-03T08:15:37;4.43;;;4.07;;
769;SDS011;368;48.698;9.116;2022-09-03T08:18:08;4.60;;;4.07;;
769;SDS011;368;48.698;9.116;2022-09-03T08:20:35;3.40;;;3.20;;
769;SDS011;368;48.698;9.116;2022-09-03T08:23:03;4.13;;;3.77;;
769;SDS011;368;48.698;9.116;2022-09-03T08:25:30;4.30;;;4.00;;
769;SDS011;368;48.698;9.116;2022-09-03T08:27:57;3.60;;;3.40;;
769;SDS011;368;48.698;9.116;2022-09-03T08:30:24;3.97;;;3.67;;
769;SDS011;368;48.698;9.116;2022-09-03T08:32:52;3.30;;;3.10;;
769;SDS011;368;48.698;9.116;2022-09-03T08:35:21;3.40;;;3.10;;
769;SDS011;368;48.698;9.116;2022-09-03T08:37:48;3.27;;;3.07;;
769;SDS011;368;48.698;9.116;2022-09-03T08:40:17;3.20;;;3.00;;
769;SDS011;368;48.698;9.116;2022-09-03T08:42:48;3.50;;;3.20;;
769;SDS011;368;48.698;9.116;2022-09-03T08:45:24;3.13;;;2.83;;
769;SDS011;368;48.698;9.116;2022-09-03T08:47:55;4.07;;;3.70;;
769;SDS011;368;48.698;9.116;2022-09-03T08:50:30;4.03;;;3.20;;
769;SDS011;368;48.698;9.116;2022-09-03T08:52:59;3.77;;;3.30;;
769;SDS011;368;48.698;9.116;2022-09-03T08:55:34;3.13;;;2.93;;
769;SDS011;368;48.698;9.116;2022-09-03T08:58:08;3.60;;;3.30;;
769;SDS011;368;48.698;9.116;2022-09-03T09:00:41;3.67;;;3.37;;
769;SDS011;368;48.698;9.116;2022-09-03T09:03:25;3.80;;;3.50;;
769;SDS011;368;48.698;9.116;2022-09-03T09:06:12;3.47;;;3.17;;
769;SDS011;368;48.698;9.116;2022-09-03T09:08:47;3.47;;;3.17;;
769;SDS011;368;48.698;9.116;2022-09-03T09:11:26;4.27;;;3.57;;
769;SDS011;368;48.698;9.116;2022-09-03T09:14:04;3.13;;;2.90;;
769;SDS011;368;48.698;9.116;2022-09-03T09:16:38;5.43;;;3.60;;
769;SDS011;368;48.698;9.116;2022-09-03T09:19:17;3.23;;;2.93;;
769;SDS011;368;48.698;9.116;2022-09-03T09:21:59;3.70;;;3.40;;
769;SDS011;368;48.698;9.116;2022-09-03T09:24:32;3.57;;;3.27;;
769;SDS011;368;48.698;9.116;2022-09-03T09:27:04;4.27;;;3.37;;
769;SDS011;368;48.698;9.116;2022-09-03T09:29:32;2.87;;;2.67;;
769;SDS011;368;48.698;9.116;2022-09-03T09:32:01;3.60;;;3.17;;
769;SDS011;368;48.698;9.116;2022-09-03T09:34:32;3.00;;;2.80;;
769;SDS011;368;48.698;9.116;2022-09-03T09:37:02;3.30;;;3.10;;
769;SDS011;368;48.698;9.116;2022-09-03T09:39:30;2.97;;;2.77;;
769;SDS011;368;48.698;9.116;2022-09-03T09:41:58;2.20;;;2.10;;
769;SDS011;368;48.698;9.116;2022-09-03T09:44:29;2.80;;;2.60;;
769;SDS011;368;48.698;9.116;2022-09-03T09:47:03;3.00;;;2.80;;
769;SDS011;368;48.698;9.116;2022-09-03T09:49:33;4.53;;;3.40;;
769;SDS011;368;48.698;9.116;2022-09-03T09:52:05;6.90;;;3.43;;
769;SDS011;368;48.698;9.116;2022-09-03T09:54:36;4.00;;;3.60;;
769;SDS011;368;48.698;9.116;2022-09-03T09:57:04;3.67;;;3.37;;
769;SDS011;368;48.698;9.116;2022-09-03T09:59:33;4.03;;;3.73;;
769;SDS011;368;48.698;9.116;2022-09-03T10:02:06;4.00;;;3.70;;
769;SDS011;368;48.698;9.116;2022-09-03T10:04:36;3.37;;;3.17;;
769;SDS011;368;48.698;9.116;2022-09-03T10:07:14;5.37;;;4.00;;
769;SDS011;368;48.698;9.116;2022-09-03T10:09:56;4.33;;;4.03;;
769;SDS011;368;48.698;9.116;2022-09-03T10:12:29;5.40;;;4.07;;
769;SDS011;368;48.698;9.116;2022-09-03T10:15:02;3.77;;;3.47;;
769;SDS011;368;48.698;9.116;2022-09-03T10:17:38;5.23;;;4.43;;
769;SDS011;368;48.698;9.116;2022-09-03T10:20:12;4.30;;;3.90;;
769;SDS011;368;48.698;9.116;2022-09-03T10:22:56;3.40;;;3.20;;
769;SDS011;368;48.698;9.116;2022-09-03T10:25:28;3.80;;;3.50;;
769;SDS011;368;48.698;9.116;2022-09-03T10:28:03;4.10;;;3.80;;
769;SDS011;368;48.698;9.116;2022-09-03T10:30:35;5.03;;;4.60;;
769;SDS011;368;48.698;9.116;2022-09-03T10:33:22;4.00;;;3.70;;
769;SDS011;368;48.698;9.116;2022-09-03T10:35:52;4.50;;;4.10;;
769;SDS011;368;48.698;9.116;2022-09-03T10:38:32;3.77;;;3.40;;
769;SDS011;368;48.698;9.116;2022-09-03T10:41:03;3.70;;;3.40;;
769;SDS011;368;48.698;9.116;2022-09-03T10:43:44;3.70;;;3.40;;
769;SDS011;368;48.698;9.116;2022-09-03T10:46:26;3.70;;;3.40;;
769;SDS011;368;48.698;9.116;2022-09-03T10:48:58;3.80;;;3.50;;
769;SDS011;368;48.698;9.116;2022-09-03T10:51:37;3.57;;;3.37;;
769;SDS011;368;48.698;9.116;2022-09-03T10:54:16;3.70;;;3.40;;
769;SDS011;368;48.698;9.116;2022-09-03T10:56:53;3.47;;;3.27;;
769;SDS011;368;48.698;9.116;2022-09-03T10:59:31;4.33;;;4.03;;
769;SDS011;368;48.698;9.116;2022-09-03T11:04:59;4.20;;;3.87;;
769;SDS011;368;48.698;9.116;2022-09-03T11:07:31;4.20;;;4.00;;
769;SDS011;368;48.698;9.116;2022-09-03T11:10:09;5.33;;;4.47;;
769;SDS011;368;48.698;9.116;2022-09-03T11:12:42;4.50;;;4.10;;
769;SDS011;368;48.698;9.116;2022-09-03T11:15:14;5.07;;;4.67;;
769;SDS011;368;48.698;9.116;2022-09-03T11:17:52;5.30;;;4.80;;
769;SDS011;368;48.698;9.116;2022-09-03T11:20:24;4.80;;;4.40;;
769;SDS011;368;48.698;9.116;2022-09-03T11:22:53;5.83;;;5.33;;
769;SDS011;368;48.698;9.116;2022-09-03T11:25:25;5.67;;;5.17;;
769;SDS011;368;48.698;9.116;2022-09-03T11:27:58;5.27;;;4.87;;
769;SDS011;368;48.698;9.116;2022-09-03T11:30:37;5.47;;;5.00;;
769;SDS011;368;48.698;9.116;2022-09-03T11:33:19;5.70;;;5.20;;
769;SDS011;368;48.698;9.116;2022-09-03T11:35:53;5.17;;;4.77;;
769;SDS011;368;48.698;9.116;2022-09-03T11:38:25;4.80;;;4.40;;
769;SDS011;368;48.698;9.116;2022-09-03T11:41:09;5.20;;;4.80;;
769;SDS011;368;48.698;9.116;2022-09-03T11:43:38;6.30;;;5.00;;
769;SDS011;368;48.698;9.116;2022-09-03T11:46:08;5.10;;;4.70;;
769;SDS011;368;48.698;9.116;2022-09-03T11:48:41;5.60;;;5.10;;
769;SDS011;368;48.698;9.116;2022-09-03T11:51:17;6.20;;;5.60;;
769;SDS011;368;48.698;9.116;2022-09-03T11:53:53;6.80;;;6.10;;
769;SDS011;368;48.698;9.116;2022-09-03T11:56:23;5.67;;;5.17;;
769;SDS011;368;48.698;9.116;2022-09-03T11:59:01;8.53;;;7.30;;
769;SDS011;368;48.698;9.116;2022-09-03T12:01:42;8.00;;;7.30;;
769;SDS011;368;48.698;9.116;2022-09-03T12:04:15;7.70;;;7.00;;
769;SDS011;368;48.698;9.116;2022-09-03T12:06:56;7.90;;;7.10;;
769;SDS011;368;48.698;9.116;2022-09-03T12:09:51;6.73;;;5.87;;
769;SDS011;368;48.698;9.116;2022-09-03T12:12:41;5.13;;;4.43;;
769;SDS011;368;48.698;9.116;2022-09-03T12:15:20;4.90;;;4.40;;
769;SDS011;368;48.698;9.116;2022-09-03T12:17:58;4.60;;;4.20;;
769;SDS011;368;48.698;9.116;2022-09-03T12:20:47;5.57;;;4.17;;
769;SDS011;368;48.698;9.116;2022-09-03T12:23:27;4.70;;;2.90;;
769;SDS011;368;48.698;9.116;2022-09-03T12:25:55;4.77;;;2.80;;
769;SDS011;368;48.698;9.116;2022-09-03T12:28:25;3.40;;;3.10;;
769;SDS011;368;48.698;9.116;2022-09-03T12:31:04;3.77;;;2.60;;
769;SDS011;368;48.698;9.116;2022-09-03T12:33:45;6.43;;;3.17;;
769;SDS011;368;48.698;9.116;2022-09-03T12:36:13;3.13;;;2.50;;
769;SDS011;368;48.698;9.116;2022-09-03T12:38:40;3.57;;;2.37;;
769;SDS011;368;48.698;9.116;2022-09-03T12:41:18;2.70;;;2.50;;
769;SDS011;368;48.698;9.116;2022-09-03T12:43:52;2.40;;;2.20;;
769;SDS011;368;48.698;9.116;2022-09-03T12:46:23;4.47;;;2.90;;
769;SDS011;368;48.698;9.116;2022-09-03T12:48:52;3.37;;;2.50;;
769;SDS011;368;48.698;9.116;2022-09-03T12:51:29;3.10;;;2.57;;
769;SDS011;368;48.698;9.116;2022-09-03T12:53:58;2.37;;;2.13;;
769;SDS011;368;48.698;9.116;2022-09-03T12:56:26;4.87;;;2.57;;
769;SDS011;368;48.698;9.116;2022-09-03T12:58:59;4.20;;;2.73;;
769;SDS011;368;48.698;9.116;2022-09-03T13:01:29;3.17;;;2.50;;
769;SDS011;368;48.698;9.116;2022-09-03T13:04:01;3.40;;;2.40;;
769;SDS011;368;48.698;9.116;2022-09-03T13:06:32;2.30;;;2.10;;
769;SDS011;368;48.698;9.116;2022-09-03T13:09:13;6.60;;;2.60;;
769;SDS011;368;48.698;9.116;2022-09-03T13:11:44;2.17;;;1.60;;
769;SDS011;368;48.698;9.116;2022-09-03T13:14:13;2.00;;;1.80;;
769;SDS011;368;48.698;9.116;2022-09-03T13:16:46;2.80;;;2.10;;
769;SDS011;368;48.698;9.116;2022-09-03T13:19:27;2.53;;;1.87;;
769;SDS011;368;48.698;9.116;2022-09-03T13:22:03;2.63;;;2.10;;
769;SDS011;368;48.698;9.116;2022-09-03T13:24:45;1.77;;;1.57;;
769;SDS011;368;48.698;9.116;2022-09-03T13:27:28;2.37;;;1.47;;
769;SDS011;368;48.698;9.116;2022-09-03T13:30:10;1.63;;;1.50;;
769;SDS011;368;48.698;9.116;2022-09-03T13:32:43;2.33;;;1.43;;
769;SDS011;368;48.698;9.116;2022-09-03T13:35:18;3.03;;;2.00;;
769;SDS011;368;48.698;9.116;2022-09-03T13:37:53;1.60;;;1.50;;
769;SDS011;368;48.698;9.116;2022-09-03T13:40:23;2.37;;;1.80;;
769;SDS011;368;48.698;9.116;2022-09-03T13:42:59;2.30;;;1.40;;
769;SDS011;368;48.698;9.116;2022-09-03T13:45:34;1.80;;;1.50;;
769;SDS011;368;48.698;9.116;2022-09-03T13:48:06;2.27;;;1.53;;
769;SDS011;368;48.698;9.116;2022-09-03T13:50:57;1.90;;;1.63;;
769;SDS011;368;48.698;9.116;2022-09-03T13:53:30;1.37;;;1.27;;
769;SDS011;368;48.698;9.116;2022-09-03T13:56:13;2.93;;;1.60;;
769;SDS011;368;48.698;9.116;2022-09-03T13:58:45;1.87;;;1.63;;
769;SDS011;368;48.698;9.116;2022-09-03T14:01:20;2.93;;;1.90;;
769;SDS011;368;48.698;9.116;2022-09-03T14:03:51;2.27;;;1.90;;
769;SDS011;368;48.698;9.116;2022-09-03T14:06:25;2.53;;;2.00;;
769;SDS011;368;48.698;9.116;2022-09-03T14:09:08;2.20;;;2.00;;
769;SDS011;368;48.698;9.116;2022-09-03T14:11:46;1.80;;;1.70;;
769;SDS011;368;48.698;9.116;2022-09-03T14:14:22;3.53;;;1.90;;
769;SDS011;368;48.698;9.116;2022-09-03T14:17:04;1.63;;;1.03;;
769;SDS011;368;48.698;9.116;2022-09-03T14:19:40;1.63;;;1.47;;
769;SDS011;368;48.698;9.116;2022-09-03T14:22:12;2.10;;;1.23;;
769;SDS011;368;48.698;9.116;2022-09-03T14:24:43;2.80;;;1.30;;
769;SDS011;368;48.698;9.116;2022-09-03T14:27:21;2.10;;;1.50;;
769;SDS011;368;48.698;9.116;2022-09-03T14:29:50;2.20;;;1.80;;
769;SDS011;368;48.698;9.116;2022-09-03T14:32:26;2.23;;;1.43;;
769;SDS011;368;48.698;9.116;2022-09-03T14:35:13;1.47;;;1.37;;
769;SDS011;368;48.698;9.116;2022-09-03T14:37:59;2.50;;;1.50;;
769;SDS011;368;48.698;9.116;2022-09-03T14:40:44;1.40;;;1.30;;
769;SDS011;368;48.698;9.116;2022-09-03T14:43:28;2.60;;;1.63;;
769;SDS011;368;48.698;9.116;2022-09-03T14:46:18;1.57;;;1.40;;
769;SDS011;368;48.698;9.116;2022-09-03T14:49:04;1.67;;;1.43;;
769;SDS011;368;48.698;9.116;2022-09-03T14:51:48;2.43;;;1.57;;
769;SDS011;368;48.698;9.116;2022-09-03T14:54:44;2.00;;;1.47;;
769;SDS011;368;48.698;9.116;2022-09-03T14:57:33;1.70;;;1.60;;
769;SDS011;368;48.698;9.116;2022-09-03T15:00:13;2.07;;;1.77;;
769;SDS011;368;48.698;9.116;2022-09-03T15:05:41;3.20;;;1.80;;
769;SDS011;368;48.698;9.116;2022-09-03T15:08:15;1.27;;;1.27;;
769;SDS011;368;48.698;9.116;2022-09-03T15:10:56;1.70;;;1.60;;
769;SDS011;368;48.698;9.116;2022-09-03T15:13:26;3.43;;;1.40;;
769;SDS011;368;48.698;9.116;2022-09-03T15:16:04;1.37;;;1.27;;
769;SDS011;368;48.698;9.116;2022-09-03T15:18:46;1.63;;;1.50;;
769;SDS011;368;48.698;9.116;2022-09-03T15:21:28;1.63;;;1.50;;
769;SDS011;368;48.698;9.116;2022-09-03T15:24:12;1.40;;;1.30;;
769;SDS011;368;48.698;9.116;2022-09-03T15:26:55;5.00;;;1.90;;
769;SDS011;368;48.698;9.116;2022-09-03T15:29:35;1.80;;;1.60;;
769;SDS011;368;48.698;9.116;2022-09-03T15:32:12;1.67;;;1.57;;
769;SDS011;368;48.698;9.116;2022-09-03T15:34:52;1.70;;;1.57;;
769;SDS011;368;48.698;9.116;2022-09-03T15:37:31;1.70;;;1.60;;
769;SDS011;368;48.698;9.116;2022-09-03T15:40:04;2.77;;;2.03;;
769;SDS011;368;48.698;9.116;2022-09-03T15:42:35;2.00;;;1.50;;
769;SDS011;368;48.698;9.116;2022-09-03T15:45:03;1.90;;;1.60;;
769;SDS011;368;48.698;9.116;2022-09-03T15:47:40;1.97;;;1.77;;
769;SDS011;368;48.698;9.116;2022-09-03T15:50:28;2.90;;;1.90;;
769;SDS011;368;48.698;9.116;2022-09-03T15:53:02;1.97;;;1.87;;
769;SDS011;368;48.698;9.116;2022-09-03T15:55:41;2.00;;;1.60;;
769;SDS011;368;48.698;9.116;2022-09-03T15:58:21;1.60;;;1.47;;
769;SDS011;368;48.698;9.116;2022-09-03T16:00:54;2.00;;;1.47;;
769;SDS011;368;48.698;9.116;2022-09-03T16:03:31;1.40;;;1.30;;
769;SDS011;368;48.698;9.116;2022-09-03T16:06:06;1.87;;;1.60;;
769;SDS011;368;48.698;9.116;2022-09-03T16:08:48;2.13;;;1.93;;
769;SDS011;368;48.698;9.116;2022-09-03T16:11:20;3.40;;;1.90;;
769;SDS011;368;48.698;9.116;2022-09-03T16:14:00;2.20;;;1.83;;
769;SDS011;368;48.698;9.116;2022-09-03T16:16:40;2.00;;;1.90;;
769;SDS011;368;48.698;9.116;2022-09-03T16:19:15;1.83;;;1.73;;
769;SDS011;368;48.698;9.116;2022-09-03T16:21:48;1.90;;;1.80;;
769;SDS011;368;48.698;9.116;2022-09-03T16:24:25;2.17;;;1.60;;
769;SDS011;368;48.698;9.116;2022-09-03T16:27:01;1.70;;;1.60;;
769;SDS011;368;48.698;9.116;2022-09-03T16:29:32;3.10;;;2.73;;